createdAt,value
2022-08-09T00:00:04.196Z,26.90
2022-08-09T00:02:33.736Z,26.84
2022-08-09T00:06:16.207Z,27.03
2022-08-09T00:07:47.167Z,27.06
2022-08-09T00:10:14.364Z,27.05
2022-08-09T00:12:47.418Z,27.02
2022-08-09T00:15:35.494Z,27.00
2022-08-09T00:18:11.547Z,27.10
2022-08-09T00:20:42.438Z,27.12
2022-08-09T00:23:55.966Z,27.02
2022-08-09T00:26:05.248Z,27.07
2022-08-09T00:28:32.113Z,27.00
2022-08-09T00:31:01.007Z,26.85
2022-08-09T00:33:51.049Z,26.96
2022-08-09T00:36:18.829Z,26.92
2022-08-09T00:38:46.242Z,26.96
2022-08-09T00:44:13.720Z,26.91
2022-08-09T00:44:14.579Z,26.91
2022-08-09T00:46:55.933Z,26.95
2022-08-09T00:49:24.572Z,26.99
2022-08-09T00:51:56.263Z,26.91
2022-08-09T00:54:35.062Z,26.66
2022-08-09T00:57:02.710Z,26.74
2022-08-09T00:59:41.355Z,26.27
2022-08-09T01:02:20.580Z,26.41
2022-08-09T01:05:03.488Z,26.51
2022-08-09T01:08:00.466Z,26.53
2022-08-09T01:10:46.291Z,26.55
2022-08-09T01:13:53.398Z,26.37
2022-08-09T01:16:30.342Z,26.48
2022-08-09T01:19:04.720Z,26.49
2022-08-09T01:22:12.256Z,26.51
2022-08-09T01:25:07.064Z,26.43
2022-08-09T01:27:39.841Z,26.43
2022-08-09T01:30:09.100Z,26.50
2022-08-09T01:32:59.002Z,26.47
2022-08-09T01:35:38.650Z,26.31
2022-08-09T01:38:14.807Z,26.33
2022-08-09T01:40:52.367Z,26.27
2022-08-09T01:43:30.379Z,26.34
2022-08-09T01:45:58.914Z,26.27
2022-08-09T01:48:29.712Z,26.17
2022-08-09T01:50:59.653Z,25.92
2022-08-09T01:53:29.304Z,25.72
2022-08-09T01:56:11.063Z,25.66
2022-08-09T01:58:39.990Z,25.84
2022-08-09T02:01:08.923Z,25.55
2022-08-09T02:03:37.412Z,25.42
2022-08-09T02:06:08.662Z,25.61
2022-08-09T02:08:59.072Z,25.39
2022-08-09T02:11:42.101Z,25.67
2022-08-09T02:14:15.824Z,25.96
2022-08-09T02:17:15.199Z,25.94
2022-08-09T02:19:43.226Z,26.08
2022-08-09T02:22:27.387Z,26.13
2022-08-09T02:25:07.564Z,26.15
2022-08-09T02:27:57.457Z,26.07
2022-08-09T02:30:29.182Z,25.98
2022-08-09T02:32:59.363Z,25.84
2022-08-09T02:35:46.266Z,25.77
2022-08-09T02:38:28.850Z,25.37
2022-08-09T02:41:09.188Z,25.51
2022-08-09T02:43:54.305Z,25.20
2022-08-09T02:46:27.420Z,25.24
2022-08-09T02:49:00.227Z,24.98
2022-08-09T02:51:33.073Z,25.24
2022-08-09T02:54:13.985Z,25.26
2022-08-09T02:56:51.007Z,25.35
2022-08-09T02:59:26.203Z,25.27
2022-08-09T03:02:07.121Z,25.18
2022-08-09T03:04:40.376Z,25.19
2022-08-09T03:07:13.926Z,24.82
2022-08-09T03:09:43.554Z,24.01
2022-08-09T03:12:23.767Z,24.01
2022-08-09T03:14:51.659Z,23.82
2022-08-09T03:17:20.660Z,23.85
2022-08-09T03:20:02.952Z,24.28
2022-08-09T03:22:41.900Z,24.49
2022-08-09T03:25:21.961Z,24.66
2022-08-09T03:28:00.860Z,24.67
2022-08-09T03:30:34.214Z,24.61
2022-08-09T03:33:17.928Z,24.85
2022-08-09T03:36:15.618Z,24.87
2022-08-09T03:38:35.051Z,25.07
2022-08-09T03:41:03.897Z,25.12
2022-08-09T03:43:31.602Z,24.98
2022-08-09T03:46:04.341Z,25.32
2022-08-09T03:48:51.906Z,25.33
2022-08-09T03:51:56.911Z,25.34
2022-08-09T03:54:10.616Z,25.33
2022-08-09T03:56:41.339Z,25.32
2022-08-09T03:59:13.858Z,25.04
2022-08-09T04:01:44.505Z,24.92
2022-08-09T04:04:14.792Z,24.86
2022-08-09T04:06:44.030Z,24.69
2022-08-09T04:09:44.416Z,24.70
2022-08-09T04:12:11.836Z,24.46
2022-08-09T04:15:02.075Z,24.34
2022-08-09T04:17:38.476Z,24.36
2022-08-09T04:20:07.867Z,24.53
2022-08-09T04:22:34.527Z,24.71
2022-08-09T04:25:04.587Z,24.72
2022-08-09T04:27:31.262Z,24.88
2022-08-09T04:29:59.584Z,24.92
2022-08-09T04:32:31.580Z,25.00
2022-08-09T04:35:01.137Z,25.07
2022-08-09T04:37:42.016Z,25.05
2022-08-09T04:40:19.082Z,25.14
2022-08-09T04:42:55.642Z,25.04
2022-08-09T04:45:23.659Z,24.96
2022-08-09T04:48:00.956Z,24.87
2022-08-09T04:50:35.120Z,24.37
2022-08-09T04:53:05.354Z,24.67
2022-08-09T04:55:40.435Z,24.55
2022-08-09T04:58:23.972Z,24.77
2022-08-09T05:00:52.001Z,24.85
2022-08-09T05:03:40.859Z,24.86
2022-08-09T05:06:07.750Z,25.07
2022-08-09T05:08:34.934Z,25.12
2022-08-09T05:11:02.599Z,25.11
2022-08-09T05:13:29.299Z,25.17
2022-08-09T05:15:59.686Z,24.89
2022-08-09T05:18:42.642Z,24.83
2022-08-09T05:21:23.099Z,24.62
2022-08-09T05:24:00.522Z,24.62
2022-08-09T05:26:36.613Z,24.73
2022-08-09T05:29:04.133Z,24.68
2022-08-09T05:31:46.737Z,24.80
2022-08-09T05:34:16.577Z,25.00
2022-08-09T05:36:43.932Z,25.07
2022-08-09T05:39:14.612Z,24.93
2022-08-09T05:41:56.385Z,24.97
2022-08-09T05:44:29.110Z,25.03
2022-08-09T05:46:59.659Z,25.17
2022-08-09T05:50:23.401Z,25.24
2022-08-09T05:52:12.711Z,25.31
2022-08-09T05:54:39.856Z,25.39
2022-08-09T05:57:07.614Z,25.47
2022-08-09T05:59:39.331Z,25.53
2022-08-09T06:02:08.622Z,25.56
2022-08-09T06:04:36.531Z,25.66
2022-08-09T06:07:06.043Z,25.83
2022-08-09T06:09:53.906Z,25.81
2022-08-09T06:12:22.796Z,25.90
2022-08-09T06:14:53.100Z,26.12
2022-08-09T06:17:19.452Z,26.15
2022-08-09T06:19:45.799Z,26.01
2022-08-09T06:22:15.136Z,26.10
2022-08-09T06:24:41.948Z,26.25
2022-08-09T06:27:08.283Z,26.39
2022-08-09T06:29:48.092Z,26.49
2022-08-09T06:33:13.296Z,26.26
2022-08-09T06:35:08.644Z,26.18
2022-08-09T06:37:52.837Z,26.37
2022-08-09T06:40:24.127Z,26.09
2022-08-09T06:42:51.251Z,25.93
2022-08-09T06:46:07.568Z,26.12
2022-08-09T06:48:04.422Z,25.95
2022-08-09T06:50:31.863Z,25.82
2022-08-09T06:52:58.423Z,26.02
2022-08-09T06:55:24.795Z,26.02
2022-08-09T06:58:03.451Z,26.10
2022-08-09T07:00:51.081Z,26.10
2022-08-09T07:03:28.050Z,26.21
2022-08-09T07:06:04.075Z,26.27
2022-08-09T07:08:32.974Z,26.34
2022-08-09T07:11:00.074Z,26.08
2022-08-09T07:13:30.367Z,26.08
2022-08-09T07:16:44.064Z,26.23
2022-08-09T07:18:44.093Z,26.30
2022-08-09T07:21:14.185Z,26.15
2022-08-09T07:23:56.379Z,26.43
2022-08-09T07:26:24.694Z,26.45
2022-08-09T07:29:08.134Z,26.10
2022-08-09T07:31:38.357Z,26.28
2022-08-09T07:34:20.771Z,26.31
2022-08-09T07:36:48.875Z,26.55
2022-08-09T07:39:20.092Z,26.54
2022-08-09T07:41:53.526Z,26.43
2022-08-09T07:44:23.987Z,26.48
2022-08-09T07:46:59.282Z,26.57
2022-08-09T07:49:27.895Z,26.63
2022-08-09T07:52:05.648Z,26.73
2022-08-09T07:54:40.592Z,26.73
2022-08-09T07:57:11.604Z,26.72
2022-08-09T07:59:51.065Z,26.41
2022-08-09T08:02:24.627Z,26.59
2022-08-09T08:04:53.887Z,26.80
2022-08-09T08:08:42.765Z,26.70
2022-08-09T08:10:10.348Z,26.63
2022-08-09T08:12:43.109Z,26.63
2022-08-09T08:15:13.903Z,26.70
2022-08-09T08:17:54.804Z,26.70
2022-08-09T08:20:28.917Z,26.58
2022-08-09T08:23:03.711Z,26.47
2022-08-09T08:25:45.957Z,26.64
2022-08-09T08:28:15.460Z,26.77
2022-08-09T08:30:44.325Z,27.13
2022-08-09T08:33:12.066Z,27.21
2022-08-09T08:36:00.463Z,27.25
2022-08-09T08:38:30.138Z,26.90
2022-08-09T08:41:16.075Z,26.71
2022-08-09T08:43:42.866Z,26.72
2022-08-09T08:46:33.052Z,26.87
2022-08-09T08:49:01.688Z,27.04
2022-08-09T08:51:38.790Z,26.99
2022-08-09T08:54:10.113Z,27.22
2022-08-09T08:56:39.718Z,27.05
2022-08-09T08:59:19.342Z,27.05
2022-08-09T09:01:53.256Z,27.21
2022-08-09T09:04:37.741Z,26.83
2022-08-09T09:07:14.961Z,26.52
2022-08-09T09:09:59.571Z,26.64
2022-08-09T09:12:31.129Z,26.83
2022-08-09T09:15:02.029Z,27.06
2022-08-09T09:17:48.185Z,27.05
2022-08-09T09:20:16.421Z,26.82
2022-08-09T09:23:02.017Z,27.07
2022-08-09T09:26:01.986Z,26.87
2022-08-09T09:29:02.783Z,27.17
2022-08-09T09:32:03.689Z,27.34
2022-08-09T09:34:11.710Z,27.34
2022-08-09T09:36:52.814Z,27.51
2022-08-09T09:39:23.342Z,27.51
2022-08-09T09:41:50.979Z,27.80
2022-08-09T09:44:27.523Z,27.22
2022-08-09T09:47:04.232Z,27.37
2022-08-09T09:49:50.083Z,27.23
2022-08-09T09:52:36.869Z,27.11
2022-08-09T09:55:28.632Z,27.13
2022-08-09T09:58:16.498Z,27.29
2022-08-09T10:00:55.124Z,27.21
2022-08-09T10:03:44.273Z,27.06
2022-08-09T10:06:13.011Z,26.91
2022-08-09T10:08:57.409Z,27.36
2022-08-09T10:12:11.779Z,27.44
2022-08-09T10:14:33.081Z,27.24
2022-08-09T10:17:40.003Z,27.29
2022-08-09T10:19:57.010Z,27.38
2022-08-09T10:22:36.704Z,27.69
2022-08-09T10:25:12.494Z,27.30
2022-08-09T10:27:56.954Z,27.26
2022-08-09T10:34:04.583Z,27.81
2022-08-09T10:36:02.664Z,27.83
2022-08-09T10:38:54.700Z,27.98
2022-08-09T10:41:18.203Z,27.54
2022-08-09T10:43:59.500Z,27.82
2022-08-09T10:46:52.529Z,27.44
2022-08-09T10:49:50.880Z,27.41
2022-08-09T10:52:34.801Z,27.55
2022-08-09T10:55:27.743Z,27.60
2022-08-09T10:58:00.265Z,27.87
2022-08-09T11:01:35.853Z,27.53
2022-08-09T11:03:50.330Z,27.63
2022-08-09T11:06:15.120Z,27.74
2022-08-09T11:08:47.171Z,27.70
2022-08-09T11:11:16.479Z,27.97
2022-08-09T11:13:50.086Z,27.81
2022-08-09T11:16:40.792Z,27.77
2022-08-09T11:19:10.361Z,27.82
2022-08-09T11:21:57.533Z,27.78
2022-08-09T11:24:57.017Z,27.95
2022-08-09T11:28:04.101Z,28.36
2022-08-09T11:30:33.373Z,28.40
2022-08-09T11:33:18.976Z,28.71
2022-08-09T11:35:50.311Z,28.58
2022-08-09T11:38:32.701Z,28.42
2022-08-09T11:41:13.181Z,28.53
2022-08-09T11:43:47.642Z,28.59
2022-08-09T11:46:26.562Z,28.85
2022-08-09T11:49:00.796Z,28.66
2022-08-09T11:53:02.972Z,28.83
2022-08-09T11:55:52.887Z,28.81
2022-08-09T11:58:30.325Z,29.15
2022-08-09T12:01:02.451Z,29.35
2022-08-09T12:03:54.825Z,29.33
2022-08-09T12:06:17.546Z,29.38
2022-08-09T12:08:54.535Z,29.41
2022-08-09T12:11:25.127Z,29.59
2022-08-09T12:14:08.168Z,29.55
2022-08-09T12:16:43.015Z,29.76
2022-08-09T12:19:12.198Z,29.57
2022-08-09T12:21:50.487Z,29.59
2022-08-09T12:24:23.933Z,29.47
2022-08-09T12:28:58.552Z,29.47
2022-08-09T12:29:52.311Z,29.72
2022-08-09T12:32:27.179Z,29.82
2022-08-09T12:34:59.642Z,29.81
2022-08-09T12:37:51.566Z,29.83
2022-08-09T12:40:20.509Z,30.14
2022-08-09T12:42:50.505Z,30.47
2022-08-09T12:45:35.044Z,30.70
2022-08-09T12:48:20.159Z,30.86
2022-08-09T12:50:58.164Z,30.96
2022-08-09T12:53:41.161Z,31.25
2022-08-09T12:56:43.160Z,31.48
2022-08-09T12:59:17.440Z,31.79
2022-08-09T13:02:00.529Z,32.06
2022-08-09T13:04:36.107Z,32.00
2022-08-09T13:07:11.608Z,32.52
2022-08-09T13:09:40.999Z,32.73
2022-08-09T13:12:10.110Z,32.21
2022-08-09T13:14:41.699Z,32.39
2022-08-09T13:17:44.221Z,32.68
2022-08-09T13:20:10.071Z,33.27
2022-08-09T13:23:01.118Z,33.59
2022-08-09T13:25:54.573Z,33.84
2022-08-09T13:28:33.657Z,34.22
2022-08-09T13:32:13.912Z,35.39
2022-08-09T13:33:57.466Z,36.07
2022-08-09T13:36:41.605Z,36.27
2022-08-09T13:41:38.998Z,35.87
2022-08-09T13:42:03.077Z,35.36
2022-08-09T13:44:31.014Z,36.20
2022-08-09T13:47:27.326Z,36.88
2022-08-09T13:49:56.205Z,36.67
2022-08-09T13:52:26.100Z,37.17
2022-08-09T13:54:58.850Z,37.82
2022-08-09T13:57:37.339Z,37.76
2022-08-09T14:00:09.708Z,38.30
2022-08-09T14:02:42.924Z,39.00
2022-08-09T14:05:58.778Z,39.17
2022-08-09T14:08:10.397Z,39.86
2022-08-09T14:10:46.225Z,39.52
2022-08-09T14:13:28.008Z,39.18
2022-08-09T14:16:11.532Z,39.70
2022-08-09T14:18:43.155Z,40.05
2022-08-09T14:21:12.137Z,40.12
2022-08-09T14:23:40.335Z,40.18
2022-08-09T14:26:13.543Z,40.33
2022-08-09T14:28:40.514Z,39.87
2022-08-09T14:31:06.896Z,41.15
2022-08-09T14:33:38.272Z,42.93
2022-08-09T14:36:20.564Z,43.88
2022-08-09T14:38:47.438Z,44.79
2022-08-09T14:41:39.814Z,45.06
2022-08-09T14:44:05.820Z,45.60
2022-08-09T14:46:54.858Z,46.30
2022-08-09T14:49:19.623Z,46.38
2022-08-09T14:51:50.646Z,46.76
2022-08-09T14:54:27.868Z,47.33
2022-08-09T14:56:58.951Z,44.50
2022-08-09T14:59:27.388Z,44.68
2022-08-09T15:01:55.323Z,45.73
2022-08-09T15:04:23.496Z,46.40
2022-08-09T15:06:50.475Z,46.74
2022-08-09T15:10:03.570Z,47.05
2022-08-09T15:12:07.806Z,43.05
2022-08-09T15:14:38.154Z,41.63
2022-08-09T15:17:05.504Z,41.42
2022-08-09T15:19:36.213Z,40.23
2022-08-09T15:22:03.015Z,40.08
2022-08-09T15:24:29.595Z,39.39
2022-08-09T15:26:56.024Z,39.52
2022-08-09T15:30:59.159Z,39.79
2022-08-09T15:32:29.162Z,39.55
2022-08-09T15:34:57.396Z,39.27
2022-08-09T15:37:23.736Z,38.80
2022-08-09T15:39:55.092Z,38.55
2022-08-09T15:42:22.000Z,38.53
2022-08-09T15:44:51.172Z,38.67
2022-08-09T15:47:22.737Z,39.17
2022-08-09T15:50:04.252Z,39.31
2022-08-09T15:52:33.984Z,39.52
2022-08-09T15:55:01.503Z,39.20
2022-08-09T15:57:35.981Z,39.50
2022-08-09T16:00:14.278Z,38.48
2022-08-09T16:02:53.717Z,37.86
2022-08-09T16:05:22.847Z,38.24
2022-08-09T16:07:50.595Z,37.08
2022-08-09T16:10:56.284Z,37.23
2022-08-09T16:13:20.994Z,37.18
2022-08-09T16:16:09.956Z,36.52
2022-08-09T16:18:44.712Z,36.23
2022-08-09T16:21:12.470Z,37.12
2022-08-09T16:23:54.889Z,37.64
2022-08-09T16:26:34.966Z,37.01
2022-08-09T16:29:10.369Z,36.71
2022-08-09T16:32:18.710Z,36.99
2022-08-09T16:34:56.710Z,36.91
2022-08-09T16:37:20.459Z,36.52
2022-08-09T16:40:09.545Z,36.94
2022-08-09T16:42:36.766Z,36.93
2022-08-09T16:45:05.229Z,37.30
2022-08-09T16:48:38.471Z,36.45
2022-08-09T16:50:31.926Z,36.37
2022-08-09T16:53:00.820Z,36.52
2022-08-09T16:55:27.187Z,36.47
2022-08-09T16:58:11.419Z,36.55
2022-08-09T17:00:38.808Z,36.71
2022-08-09T17:03:20.888Z,36.75
2022-08-09T17:06:06.531Z,36.78
2022-08-09T17:08:46.751Z,37.04
2022-08-09T17:11:24.486Z,37.60
2022-08-09T17:14:01.561Z,37.78
2022-08-09T17:16:28.643Z,38.23
2022-08-09T17:18:55.083Z,38.51
2022-08-09T17:21:21.776Z,38.93
2022-08-09T17:24:20.431Z,38.97
2022-08-09T17:26:37.909Z,38.42
2022-08-09T17:29:05.068Z,37.56
2022-08-09T17:31:40.309Z,37.92
2022-08-09T17:34:06.929Z,37.78
2022-08-09T17:36:53.930Z,38.03
2022-08-09T17:39:24.898Z,37.84
2022-08-09T17:41:51.849Z,37.37
2022-08-09T17:44:38.363Z,37.15
2022-08-09T17:47:05.722Z,37.30
2022-08-09T17:49:37.059Z,36.87
2022-08-09T17:52:22.110Z,36.76
2022-08-09T17:54:58.427Z,36.57
2022-08-09T17:58:03.797Z,36.83
2022-08-09T18:00:12.603Z,36.48
2022-08-09T18:02:39.674Z,36.14
2022-08-09T18:05:06.733Z,36.47
2022-08-09T18:07:39.508Z,36.03
2022-08-09T18:10:14.883Z,36.04
2022-08-09T18:13:43.520Z,35.30
2022-08-09T18:15:50.455Z,33.74
2022-08-09T18:18:25.388Z,33.53
2022-08-09T18:20:57.866Z,32.97
2022-08-09T18:24:10.971Z,32.23
2022-08-09T18:26:17.387Z,32.06
2022-08-09T18:30:42.604Z,31.94
2022-08-09T18:31:51.633Z,31.63
2022-08-09T18:34:17.649Z,31.44
2022-08-09T18:36:46.680Z,30.97
2022-08-09T18:39:16.978Z,30.92
2022-08-09T18:41:52.498Z,30.92
2022-08-09T18:44:25.803Z,31.00
2022-08-09T18:47:03.537Z,30.71
2022-08-09T18:49:43.851Z,30.35
2022-08-09T18:52:16.039Z,30.08
2022-08-09T18:54:52.911Z,29.91
2022-08-09T18:57:22.796Z,29.61
2022-08-09T18:59:56.373Z,29.23
2022-08-09T19:02:31.830Z,29.46
2022-08-09T19:05:14.498Z,29.48
2022-08-09T19:08:04.854Z,29.83
2022-08-09T19:10:37.840Z,29.76
2022-08-09T19:13:20.838Z,29.39
2022-08-09T19:15:51.575Z,29.31
2022-08-09T19:18:33.036Z,29.02
2022-08-09T19:21:09.832Z,28.91
2022-08-09T19:24:31.665Z,29.18
2022-08-09T19:26:31.791Z,29.12
2022-08-09T19:29:09.529Z,28.88
2022-08-09T19:31:46.375Z,29.06
2022-08-09T19:34:22.136Z,28.54
2022-08-09T19:36:53.568Z,28.55
2022-08-09T19:39:42.862Z,28.90
2022-08-09T19:42:07.440Z,28.55
2022-08-09T19:44:33.768Z,28.60
2022-08-09T19:47:01.320Z,28.46
2022-08-09T19:50:07.317Z,28.30
2022-08-09T19:52:15.425Z,28.36
2022-08-09T19:54:44.507Z,28.10
2022-08-09T19:57:10.838Z,28.09
2022-08-09T19:59:58.894Z,28.16
2022-08-09T20:04:07.219Z,28.19
2022-08-09T20:05:14.709Z,28.00
2022-08-09T20:07:59.671Z,28.05
2022-08-09T20:10:36.842Z,28.15
2022-08-09T20:13:06.198Z,28.15
2022-08-09T20:16:38.150Z,27.78
2022-08-09T20:18:22.147Z,27.52
2022-08-09T20:20:51.091Z,27.51
2022-08-09T20:23:18.800Z,27.55
2022-08-09T20:25:52.224Z,27.54
2022-08-09T20:28:24.487Z,27.91
2022-08-09T20:31:02.598Z,27.42
2022-08-09T20:33:38.921Z,27.33
2022-08-09T20:36:08.479Z,27.31
2022-08-09T20:39:00.278Z,26.98
2022-08-09T20:41:34.647Z,27.14
2022-08-09T20:44:10.481Z,26.79
2022-08-09T20:46:43.302Z,26.73
2022-08-09T20:49:13.118Z,26.79
2022-08-09T20:51:41.440Z,26.69
2022-08-09T20:54:12.504Z,27.06
2022-08-09T20:56:41.057Z,27.14
2022-08-09T20:59:07.647Z,27.00
2022-08-09T21:01:50.593Z,27.13
2022-08-09T21:05:53.592Z,27.00
2022-08-09T21:07:11.385Z,26.84
2022-08-09T21:09:55.795Z,26.87
2022-08-09T21:12:32.128Z,27.05
2022-08-09T21:14:58.756Z,27.03
2022-08-09T21:18:23.417Z,27.41
2022-08-09T21:20:22.740Z,27.25
2022-08-09T21:22:54.367Z,26.98
2022-08-09T21:25:22.185Z,26.66
2022-08-09T21:27:53.238Z,26.46
2022-08-09T21:30:22.642Z,26.43
2022-08-09T21:32:51.694Z,26.52
2022-08-09T21:35:18.335Z,26.23
2022-08-09T21:37:59.737Z,26.19
2022-08-09T21:40:30.865Z,26.15
2022-08-09T21:42:59.845Z,26.26
2022-08-09T21:45:27.992Z,26.23
2022-08-09T21:47:54.384Z,26.30
2022-08-09T21:50:35.103Z,26.24
2022-08-09T21:53:15.563Z,26.44
2022-08-09T21:55:50.538Z,26.01
2022-08-09T21:58:16.941Z,26.12
2022-08-09T22:00:43.457Z,26.08
2022-08-09T22:03:25.173Z,26.18
2022-08-09T22:05:52.308Z,25.75
2022-08-09T22:08:18.816Z,25.93
2022-08-09T22:11:00.160Z,25.96
2022-08-09T22:13:35.939Z,26.02
2022-08-09T22:16:07.818Z,25.97
2022-08-09T22:18:37.118Z,26.25
2022-08-09T22:21:09.578Z,26.04
2022-08-09T22:23:59.195Z,26.52
2022-08-09T22:26:35.528Z,26.57
2022-08-09T22:29:07.556Z,26.33
2022-08-09T22:31:44.210Z,26.32
2022-08-09T22:34:14.851Z,26.39
2022-08-09T22:36:46.058Z,26.28
2022-08-09T22:39:46.557Z,25.99
2022-08-09T22:42:00.001Z,26.20
2022-08-09T22:44:29.826Z,26.02
2022-08-09T22:48:16.602Z,26.26
2022-08-09T22:49:45.434Z,26.14
2022-08-09T22:52:11.875Z,26.44
2022-08-09T22:54:38.261Z,26.39
2022-08-09T22:57:05.368Z,26.57
2022-08-09T22:59:55.620Z,26.35
2022-08-09T23:02:20.385Z,26.56
2022-08-09T23:04:53.911Z,26.77
2022-08-09T23:08:21.291Z,26.69
2022-08-09T23:10:08.486Z,26.82
2022-08-09T23:12:34.882Z,26.89
2022-08-09T23:15:01.281Z,26.84
2022-08-09T23:17:27.666Z,27.04
2022-08-09T23:20:07.460Z,27.13
2022-08-09T23:22:35.733Z,27.34
2022-08-09T23:25:04.443Z,27.44
2022-08-09T23:27:31.145Z,27.50
2022-08-09T23:29:57.537Z,27.36
2022-08-09T23:32:24.018Z,27.56
2022-08-09T23:34:50.362Z,27.52
2022-08-09T23:37:17.715Z,27.36
2022-08-09T23:39:48.089Z,27.29
2022-08-09T23:42:14.718Z,27.44
2022-08-09T23:44:41.085Z,27.57
2022-08-09T23:47:07.436Z,27.68
2022-08-09T23:49:33.868Z,27.63
2022-08-09T23:52:00.264Z,27.48
2022-08-09T23:54:27.557Z,27.60
2022-08-09T23:56:55.899Z,27.48
2022-08-09T23:59:24.152Z,27.65
